createdAt,value
2023-04-15T00:00:27.102Z,88.98
2023-04-15T00:03:30.005Z,89.29
2023-04-15T00:06:32.534Z,88.65
2023-04-15T00:09:34.774Z,88.73
2023-04-15T00:12:37.126Z,89.69
2023-04-15T00:15:39.519Z,89.68
2023-04-15T00:18:42.267Z,89.74
2023-04-15T00:21:44.489Z,89.84
2023-04-15T00:24:47.044Z,89.93
2023-04-15T00:27:49.734Z,90.53
2023-04-15T00:30:52.053Z,90.81
2023-04-15T00:33:54.408Z,89.50
2023-04-15T00:36:57.701Z,89.30
2023-04-15T00:39:59.924Z,89.59
2023-04-15T00:43:02.520Z,89.27
2023-04-15T00:46:06.107Z,89.48
2023-04-15T00:49:08.509Z,89.12
2023-04-15T00:52:10.784Z,89.15
2023-04-15T00:55:13.097Z,89.62
2023-04-15T00:58:16.112Z,90.06
2023-04-15T01:01:22.571Z,90.38
2023-04-15T01:04:25.476Z,89.80
2023-04-15T01:07:27.957Z,89.65
2023-04-15T01:10:31.847Z,90.16
2023-04-15T01:13:34.710Z,89.87
2023-04-15T01:16:39.901Z,89.93
2023-04-15T01:19:42.406Z,90.24
2023-04-15T01:22:45.472Z,89.38
2023-04-15T01:25:49.403Z,89.91
2023-04-15T01:28:51.779Z,89.97
2023-04-15T01:31:56.075Z,90.40
2023-04-15T01:35:01.740Z,89.99
2023-04-15T01:38:06.446Z,89.36
2023-04-15T01:41:08.819Z,89.44
2023-04-15T01:44:11.163Z,89.82
2023-04-15T01:47:15.556Z,89.64
2023-04-15T01:50:18.016Z,89.69
2023-04-15T01:53:20.780Z,89.75
2023-04-15T01:56:24.536Z,89.46
2023-04-15T01:59:27.444Z,89.61
2023-04-15T02:02:31.070Z,89.62
2023-04-15T02:05:33.871Z,89.31
2023-04-15T02:08:36.115Z,89.02
2023-04-15T02:11:39.254Z,88.73
2023-04-15T02:14:41.595Z,88.31
2023-04-15T02:17:46.135Z,88.91
2023-04-15T02:20:52.695Z,89.52
2023-04-15T02:23:54.982Z,89.59
2023-04-15T02:26:57.410Z,89.71
2023-04-15T02:29:59.741Z,88.57
2023-04-15T02:33:02.293Z,88.84
2023-04-15T02:36:05.124Z,88.37
2023-04-15T02:39:07.432Z,89.01
2023-04-15T02:42:09.932Z,89.31
2023-04-15T02:45:13.012Z,88.71
2023-04-15T02:48:18.987Z,89.22
2023-04-15T02:51:26.014Z,88.12
2023-04-15T02:54:32.660Z,88.77
2023-04-15T02:57:37.303Z,88.77
2023-04-15T03:00:42.024Z,88.44
2023-04-15T03:03:44.495Z,88.13
2023-04-15T03:06:46.910Z,89.04
2023-04-15T03:09:49.321Z,88.82
2023-04-15T03:12:51.736Z,88.92
2023-04-15T03:15:56.891Z,90.03
2023-04-15T03:18:59.476Z,88.46
2023-04-15T03:22:01.955Z,88.98
2023-04-15T03:25:04.623Z,88.78
2023-04-15T03:28:08.584Z,88.86
2023-04-15T03:31:11.040Z,88.94
2023-04-15T03:34:13.327Z,89.47
2023-04-15T03:37:16.162Z,89.53
2023-04-15T03:40:18.553Z,90.25
2023-04-15T03:43:21.340Z,89.52
2023-04-15T03:46:23.765Z,90.02
2023-04-15T03:49:26.071Z,89.69
2023-04-15T03:52:28.339Z,89.44
2023-04-15T03:55:30.635Z,89.30
2023-04-15T03:58:32.941Z,89.53
2023-04-15T04:01:35.210Z,90.07
2023-04-15T04:04:37.649Z,90.12
2023-04-15T04:07:39.952Z,89.98
2023-04-15T04:10:42.843Z,89.62
2023-04-15T04:13:45.090Z,89.42
2023-04-15T04:16:47.396Z,89.76
2023-04-15T04:19:49.712Z,89.88
2023-04-15T04:22:52.038Z,90.66
2023-04-15T04:25:54.338Z,90.23
2023-04-15T04:28:56.572Z,90.83
2023-04-15T04:31:58.913Z,90.69
2023-04-15T04:35:01.167Z,90.43
2023-04-15T04:38:04.412Z,90.02
2023-04-15T04:41:06.721Z,89.57
2023-04-15T04:44:08.964Z,89.76
2023-04-15T04:47:11.557Z,90.10
2023-04-15T04:50:13.932Z,87.35
2023-04-15T04:53:16.398Z,87.74
2023-04-15T04:56:18.657Z,87.11
2023-04-15T04:59:20.896Z,85.46
2023-04-15T05:02:23.364Z,84.65
2023-04-15T05:05:25.775Z,82.08
2023-04-15T05:08:28.044Z,80.72
2023-04-15T05:11:30.258Z,79.96
2023-04-15T05:14:33.382Z,79.85
2023-04-15T05:17:35.689Z,81.08
2023-04-15T05:20:38.344Z,82.11
2023-04-15T05:23:41.080Z,82.05
2023-04-15T05:26:43.356Z,81.89
2023-04-15T05:29:45.899Z,80.38
2023-04-15T05:32:48.452Z,76.14
2023-04-15T05:35:50.724Z,74.92
2023-04-15T05:38:53.006Z,78.14
2023-04-15T05:41:55.293Z,80.39
2023-04-15T05:44:57.562Z,80.34
2023-04-15T05:47:59.871Z,82.01
2023-04-15T05:51:02.171Z,82.50
2023-04-15T05:54:04.471Z,81.79
2023-04-15T05:57:07.985Z,82.33
2023-04-15T06:00:10.890Z,81.53
2023-04-15T06:03:13.498Z,81.17
2023-04-15T06:06:15.920Z,79.47
2023-04-15T06:09:18.228Z,77.43
2023-04-15T06:12:20.796Z,77.03
2023-04-15T06:15:23.134Z,78.42
2023-04-15T06:18:25.993Z,78.66
2023-04-15T06:21:28.447Z,79.92
2023-04-15T06:24:31.561Z,80.19
2023-04-15T06:27:35.016Z,80.90
2023-04-15T06:30:38.550Z,79.97
2023-04-15T06:33:40.872Z,79.44
2023-04-15T06:36:43.721Z,79.03
2023-04-15T06:39:46.016Z,77.95
2023-04-15T06:42:48.372Z,77.52
2023-04-15T06:45:51.778Z,76.29
2023-04-15T06:48:54.094Z,76.34
2023-04-15T06:51:57.718Z,76.86
2023-04-15T06:55:03.202Z,75.88
2023-04-15T06:58:05.930Z,76.68
2023-04-15T07:01:08.314Z,71.91
2023-04-15T07:04:11.295Z,67.49
2023-04-15T07:07:13.592Z,67.04
2023-04-15T07:10:16.096Z,66.40
2023-04-15T07:13:18.418Z,68.54
2023-04-15T07:16:21.252Z,69.33
2023-04-15T07:19:23.601Z,68.98
2023-04-15T07:22:26.358Z,64.05
2023-04-15T07:25:28.633Z,67.26
2023-04-15T07:28:31.822Z,67.12
2023-04-15T07:31:34.180Z,65.34
2023-04-15T07:34:37.589Z,61.54
2023-04-15T07:37:39.895Z,63.26
2023-04-15T07:40:42.504Z,60.87
2023-04-15T07:43:45.363Z,60.70
2023-04-15T07:46:47.953Z,60.99
2023-04-15T07:49:51.571Z,60.85
2023-04-15T07:52:53.922Z,61.78
2023-04-15T07:55:56.180Z,62.18
2023-04-15T07:58:58.452Z,58.31
2023-04-15T08:02:00.896Z,54.87
2023-04-15T08:05:04.446Z,57.75
2023-04-15T08:08:07.123Z,55.20
2023-04-15T08:11:09.449Z,55.28
2023-04-15T08:14:11.742Z,50.82
2023-04-15T08:17:14.047Z,55.36
2023-04-15T08:20:16.473Z,55.22
2023-04-15T08:23:19.516Z,60.12
2023-04-15T08:26:21.796Z,58.84
2023-04-15T08:29:24.632Z,57.66
2023-04-15T08:32:27.314Z,56.26
2023-04-15T08:35:29.666Z,58.99
2023-04-15T08:38:42.388Z,57.92
2023-04-15T08:41:52.297Z,57.22
2023-04-15T08:44:56.886Z,56.23
2023-04-15T08:48:01.123Z,59.06
2023-04-15T08:51:03.774Z,55.10
2023-04-15T08:54:07.147Z,56.66
2023-04-15T08:57:09.452Z,57.77
2023-04-15T09:00:14.234Z,56.99
2023-04-15T09:03:17.831Z,58.16
2023-04-15T09:06:21.696Z,54.53
2023-04-15T09:09:24.076Z,54.40
2023-04-15T09:12:26.696Z,54.58
2023-04-15T09:15:30.421Z,55.73
2023-04-15T09:18:35.691Z,56.97
2023-04-15T09:21:38.058Z,53.17
2023-04-15T09:24:42.327Z,52.41
2023-04-15T09:27:49.391Z,55.38
2023-04-15T09:31:02.771Z,56.82
2023-04-15T09:34:05.901Z,56.28
2023-04-15T09:37:10.942Z,54.32
2023-04-15T09:40:14.026Z,54.27
2023-04-15T09:43:17.457Z,55.48
2023-04-15T09:46:20.206Z,56.65
2023-04-15T09:49:23.354Z,57.43
2023-04-15T09:52:27.430Z,57.79
2023-04-15T09:55:33.503Z,56.90
2023-04-15T09:58:38.714Z,56.41
2023-04-15T10:01:42.689Z,55.28
2023-04-15T10:04:49.704Z,54.56
2023-04-15T10:07:52.048Z,55.26
2023-04-15T10:10:54.923Z,55.82
2023-04-15T10:13:57.696Z,57.49
2023-04-15T10:17:03.350Z,57.83
2023-04-15T10:20:07.286Z,58.48
2023-04-15T10:23:11.517Z,58.48
2023-04-15T10:26:16.244Z,58.50
2023-04-15T10:29:18.702Z,58.01
2023-04-15T10:32:22.440Z,57.57
2023-04-15T10:35:24.872Z,58.47
2023-04-15T10:38:43.946Z,59.40
2023-04-15T10:41:46.264Z,61.21
2023-04-15T10:44:56.610Z,61.87
2023-04-15T10:48:03.328Z,61.09
2023-04-15T10:51:06.079Z,59.60
2023-04-15T10:54:32.831Z,58.68
2023-04-15T10:57:38.430Z,58.93
2023-04-15T11:00:40.706Z,57.99
2023-04-15T11:03:43.994Z,59.10
2023-04-15T11:06:46.721Z,60.24
2023-04-15T11:09:49.071Z,61.12
2023-04-15T11:12:59.603Z,61.98
2023-04-15T11:16:03.601Z,63.57
2023-04-15T11:19:06.094Z,62.99
2023-04-15T11:22:12.646Z,63.90
2023-04-15T11:25:29.581Z,65.20
2023-04-15T11:28:32.945Z,67.27
2023-04-15T11:31:35.319Z,64.58
2023-04-15T11:34:37.647Z,62.05
2023-04-15T11:37:40.127Z,62.01
2023-04-15T11:40:46.186Z,59.50
2023-04-15T11:43:50.535Z,58.10
2023-04-15T11:46:52.955Z,57.79
2023-04-15T11:49:55.313Z,56.89
2023-04-15T11:52:59.563Z,57.69
2023-04-15T11:56:02.015Z,59.21
2023-04-15T11:59:04.420Z,59.49
2023-04-15T12:02:14.465Z,59.47
2023-04-15T12:05:17.028Z,58.85
2023-04-15T12:08:19.406Z,58.71
2023-04-15T12:11:31.037Z,58.78
2023-04-15T12:14:34.162Z,59.30
2023-04-15T12:17:50.801Z,59.74
2023-04-15T12:20:54.745Z,57.59
2023-04-15T12:23:58.296Z,57.98
2023-04-15T12:27:08.531Z,56.75
2023-04-15T12:30:13.828Z,57.52
2023-04-15T12:33:20.576Z,57.45
2023-04-15T12:36:23.693Z,58.29
2023-04-15T12:39:30.514Z,57.04
2023-04-15T12:42:33.163Z,58.72
2023-04-15T12:45:35.485Z,60.23
2023-04-15T12:48:37.801Z,61.56
2023-04-15T12:51:40.207Z,61.14
2023-04-15T12:54:45.074Z,60.71
2023-04-15T12:57:47.328Z,59.97
2023-04-15T13:00:50.143Z,60.64
2023-04-15T13:03:53.004Z,61.93
2023-04-15T13:06:56.246Z,61.28
2023-04-15T13:09:58.487Z,61.48
2023-04-15T13:13:00.753Z,60.47
2023-04-15T13:16:03.294Z,59.99
2023-04-15T13:19:05.638Z,59.50
2023-04-15T13:22:08.914Z,60.66
2023-04-15T13:25:14.121Z,60.05
2023-04-15T13:28:16.417Z,60.49
2023-04-15T13:31:18.722Z,61.21
2023-04-15T13:34:21.070Z,61.74
2023-04-15T13:37:31.659Z,59.84
2023-04-15T13:40:33.955Z,60.39
2023-04-15T13:43:36.737Z,60.26
2023-04-15T13:46:40.584Z,60.85
2023-04-15T13:49:42.889Z,61.01
2023-04-15T13:52:45.197Z,61.03
2023-04-15T13:55:47.484Z,61.30
2023-04-15T13:58:49.941Z,60.89
2023-04-15T14:01:53.145Z,60.81
2023-04-15T14:04:55.494Z,61.07
2023-04-15T14:07:59.189Z,60.92
2023-04-15T14:11:01.487Z,60.31
2023-04-15T14:14:03.920Z,61.80
2023-04-15T14:17:10.219Z,62.64
2023-04-15T14:20:13.945Z,64.22
2023-04-15T14:23:17.338Z,63.63
2023-04-15T14:26:20.025Z,64.18
2023-04-15T14:29:22.370Z,63.67
2023-04-15T14:32:26.399Z,62.71
2023-04-15T14:35:28.867Z,63.13
2023-04-15T14:38:31.553Z,64.33
2023-04-15T14:41:34.356Z,63.81
2023-04-15T14:44:36.664Z,63.90
2023-04-15T14:47:39.114Z,64.13
2023-04-15T14:50:41.466Z,64.06
2023-04-15T14:53:44.050Z,65.14
2023-04-15T14:56:46.349Z,65.10
2023-04-15T14:59:48.610Z,65.17
2023-04-15T15:02:51.060Z,65.22
2023-04-15T15:05:53.561Z,65.66
2023-04-15T15:08:56.008Z,64.87
2023-04-15T15:11:58.364Z,65.12
2023-04-15T15:15:09.169Z,65.21
2023-04-15T15:18:19.615Z,64.88
2023-04-15T15:21:22.108Z,65.71
2023-04-15T15:24:24.352Z,64.96
2023-04-15T15:27:26.683Z,64.81
2023-04-15T15:30:29.101Z,64.82
2023-04-15T15:33:32.041Z,64.41
2023-04-15T15:36:34.293Z,65.05
2023-04-15T15:39:36.745Z,63.63
2023-04-15T15:42:39.022Z,63.54
2023-04-15T15:45:41.524Z,62.73
2023-04-15T15:48:44.173Z,62.45
2023-04-15T15:51:46.849Z,61.62
2023-04-15T15:54:49.222Z,62.30
2023-04-15T15:57:51.784Z,63.31
2023-04-15T16:00:54.107Z,64.65
2023-04-15T16:03:56.570Z,65.01
2023-04-15T16:06:59.001Z,65.58
2023-04-15T16:10:01.289Z,65.70
2023-04-15T16:13:03.640Z,65.82
2023-04-15T16:16:06.211Z,66.93
2023-04-15T16:19:08.614Z,67.75
2023-04-15T16:22:11.224Z,68.86
2023-04-15T16:25:13.559Z,71.71
2023-04-15T16:28:25.603Z,73.28
2023-04-15T16:31:29.003Z,73.42
2023-04-15T16:34:31.250Z,74.89
2023-04-15T16:37:34.581Z,74.74
2023-04-15T16:40:37.608Z,74.50
2023-04-15T16:43:39.967Z,74.30
2023-04-15T16:46:42.299Z,74.05
2023-04-15T16:49:44.523Z,73.67
2023-04-15T16:52:46.807Z,74.56
2023-04-15T16:55:49.094Z,75.12
2023-04-15T16:58:51.339Z,74.42
2023-04-15T17:01:56.765Z,73.93
2023-04-15T17:04:59.148Z,73.92
2023-04-15T17:08:01.499Z,75.08
2023-04-15T17:11:03.947Z,74.91
2023-04-15T17:14:09.092Z,74.73
2023-04-15T17:17:11.413Z,74.74
2023-04-15T17:20:14.155Z,75.30
2023-04-15T17:23:16.497Z,76.61
2023-04-15T17:26:19.323Z,77.01
2023-04-15T17:29:23.538Z,77.21
2023-04-15T17:32:31.745Z,77.43
2023-04-15T17:35:34.270Z,77.57
2023-04-15T17:38:36.540Z,77.31
2023-04-15T17:41:38.785Z,77.29
2023-04-15T17:44:41.246Z,77.67
2023-04-15T17:47:43.633Z,77.95
2023-04-15T17:50:46.174Z,79.38
2023-04-15T17:53:48.865Z,78.70
2023-04-15T17:56:51.720Z,80.09
2023-04-15T17:59:54.122Z,80.29
2023-04-15T18:02:56.579Z,80.45
2023-04-15T18:06:00.716Z,81.18
2023-04-15T18:09:04.111Z,81.86
2023-04-15T18:12:07.792Z,82.98
2023-04-15T18:15:10.884Z,83.42
2023-04-15T18:18:13.132Z,82.64
2023-04-15T18:21:15.392Z,83.56
2023-04-15T18:24:17.976Z,83.15
2023-04-15T18:27:20.626Z,83.38
2023-04-15T18:30:23.696Z,84.61
2023-04-15T18:33:25.992Z,86.01
2023-04-15T18:36:28.251Z,86.77
2023-04-15T18:39:31.046Z,86.58
2023-04-15T18:42:33.317Z,86.83
2023-04-15T18:45:36.278Z,86.57
2023-04-15T18:48:38.607Z,87.18
2023-04-15T18:51:41.688Z,87.93
2023-04-15T18:54:43.928Z,87.62
2023-04-15T18:57:46.715Z,87.13
2023-04-15T19:00:50.854Z,87.19
2023-04-15T19:03:53.170Z,87.92
2023-04-15T19:06:55.445Z,88.82
2023-04-15T19:09:57.947Z,89.08
2023-04-15T19:13:00.526Z,88.91
2023-04-15T19:16:03.318Z,89.11
2023-04-15T19:19:06.813Z,89.81
2023-04-15T19:22:09.824Z,89.06
2023-04-15T19:25:12.152Z,88.53
2023-04-15T19:28:16.423Z,88.87
2023-04-15T19:31:18.818Z,89.23
2023-04-15T19:34:21.373Z,89.37
2023-04-15T19:37:25.832Z,87.81
2023-04-15T19:40:28.098Z,87.49
2023-04-15T19:43:32.769Z,87.90
2023-04-15T19:46:35.112Z,87.43
2023-04-15T19:49:38.033Z,87.42
2023-04-15T19:52:40.316Z,87.44
2023-04-15T19:55:42.618Z,87.36
2023-04-15T19:58:46.978Z,87.30
2023-04-15T20:01:49.287Z,87.13
2023-04-15T20:04:51.770Z,87.50
2023-04-15T20:07:54.053Z,87.77
2023-04-15T20:10:57.186Z,87.97
2023-04-15T20:13:59.518Z,88.61
2023-04-15T20:17:02.334Z,88.92
2023-04-15T20:20:06.554Z,89.42
2023-04-15T20:23:08.811Z,89.49
2023-04-15T20:26:11.146Z,89.88
2023-04-15T20:29:14.116Z,90.19
2023-04-15T20:32:17.874Z,90.62
2023-04-15T20:35:20.626Z,90.84
2023-04-15T20:38:22.903Z,90.74
2023-04-15T20:41:25.568Z,90.51
2023-04-15T20:44:27.843Z,90.17
2023-04-15T20:47:30.319Z,89.90
2023-04-15T20:50:32.686Z,90.30
2023-04-15T20:53:35.073Z,90.03
2023-04-15T20:56:37.343Z,90.45
2023-04-15T20:59:39.585Z,90.16
2023-04-15T21:02:41.951Z,89.74
2023-04-15T21:05:44.302Z,90.10
2023-04-15T21:08:46.585Z,89.83
2023-04-15T21:14:54.762Z,90.30
2023-04-15T21:17:57.086Z,90.01
2023-04-15T21:21:00.986Z,90.62
2023-04-15T21:24:03.252Z,91.08
2023-04-15T21:27:06.790Z,90.90
2023-04-15T21:30:09.489Z,90.59
2023-04-15T21:33:11.854Z,90.53
2023-04-15T21:36:14.113Z,90.92
2023-04-15T21:39:17.175Z,91.19
2023-04-15T21:42:19.513Z,91.36
2023-04-15T21:45:21.835Z,92.14
2023-04-15T21:48:24.174Z,91.90
2023-04-15T21:51:29.632Z,92.07
2023-04-15T21:54:32.982Z,92.57
2023-04-15T21:57:35.230Z,92.56
2023-04-15T22:00:39.139Z,92.75
2023-04-15T22:03:42.795Z,93.01
2023-04-15T22:06:45.249Z,92.49
2023-04-15T22:09:47.579Z,92.42
2023-04-15T22:12:49.916Z,91.81
2023-04-15T22:15:52.145Z,91.69
2023-04-15T22:18:55.329Z,91.60
2023-04-15T22:21:58.867Z,91.80
2023-04-15T22:25:01.153Z,91.98
2023-04-15T22:28:06.959Z,92.38
2023-04-15T22:31:09.345Z,92.00
2023-04-15T22:34:11.734Z,92.04
2023-04-15T22:37:14.157Z,92.19
2023-04-15T22:40:16.588Z,91.76
2023-04-15T22:43:18.829Z,92.26
2023-04-15T22:46:27.061Z,92.04
2023-04-15T22:49:29.482Z,91.97
2023-04-15T22:52:31.818Z,92.33
2023-04-15T22:55:34.123Z,92.73
2023-04-15T22:58:36.359Z,92.51
2023-04-15T23:01:38.668Z,92.09
2023-04-15T23:04:41.116Z,92.07
2023-04-15T23:07:43.540Z,92.38
2023-04-15T23:10:46.576Z,92.45
2023-04-15T23:13:50.613Z,93.29
2023-04-15T23:16:52.964Z,93.46
2023-04-15T23:19:55.205Z,93.01
2023-04-15T23:22:57.555Z,93.25
2023-04-15T23:26:01.314Z,93.75
2023-04-15T23:29:03.778Z,93.18
2023-04-15T23:32:06.652Z,92.99
2023-04-15T23:35:09.512Z,93.64
2023-04-15T23:38:11.856Z,93.10
2023-04-15T23:41:14.181Z,93.03
2023-04-15T23:44:16.480Z,92.40
2023-04-15T23:47:18.825Z,92.11
2023-04-15T23:50:21.157Z,92.39
2023-04-15T23:53:23.463Z,92.14
2023-04-15T23:56:25.778Z,92.70
2023-04-15T23:59:28.061Z,92.29
